createdAt,value
2022-09-11T00:02:46.677Z,0
2022-09-11T00:07:51.098Z,0
2022-09-11T00:12:55.624Z,0
2022-09-11T00:17:59.198Z,0
2022-09-11T00:23:03.692Z,0
2022-09-11T00:28:08.227Z,0
2022-09-11T00:33:11.824Z,0
2022-09-11T00:38:17.412Z,0
2022-09-11T00:43:20.864Z,0
2022-09-11T00:48:24.453Z,0
2022-09-11T00:53:28.953Z,0
2022-09-11T00:58:33.513Z,0
2022-09-11T01:03:37.069Z,0
2022-09-11T01:08:41.574Z,0
2022-09-11T01:13:45.109Z,0
2022-09-11T01:18:49.721Z,0
2022-09-11T01:23:54.176Z,0
2022-09-11T01:28:57.749Z,0
2022-09-11T01:34:02.353Z,0
2022-09-11T01:39:06.804Z,0
2022-09-11T01:44:10.363Z,0
2022-09-11T01:49:14.910Z,0
2022-09-11T01:54:19.424Z,0
2022-09-11T01:59:23.968Z,0
2022-09-11T02:04:27.525Z,0
2022-09-11T02:09:32.045Z,0
2022-09-11T02:14:36.554Z,0
2022-09-11T02:19:40.202Z,0
2022-09-11T02:24:44.663Z,0
2022-09-11T02:29:49.179Z,0
2022-09-11T02:34:52.728Z,0
2022-09-11T02:39:57.292Z,0
2022-09-11T02:45:01.798Z,0
2022-09-11T02:50:05.348Z,0
2022-09-11T02:55:09.891Z,0
2022-09-11T03:00:14.424Z,0
2022-09-11T03:05:18.993Z,0
2022-09-11T03:10:22.511Z,0
2022-09-11T03:15:27.062Z,0
2022-09-11T03:20:31.567Z,0
2022-09-11T03:25:35.115Z,0
2022-09-11T03:30:39.621Z,0
2022-09-11T03:35:44.210Z,0
2022-09-11T03:40:47.707Z,0
2022-09-11T03:45:52.352Z,0
2022-09-11T03:50:56.810Z,0
2022-09-11T03:56:00.310Z,0
2022-09-11T04:01:04.898Z,0
2022-09-11T04:06:09.417Z,0
2022-09-11T04:11:13.967Z,0
2022-09-11T04:16:17.565Z,0
2022-09-11T04:21:22.022Z,0
2022-09-11T04:26:26.597Z,0
2022-09-11T04:31:30.163Z,0
2022-09-11T04:36:34.661Z,0
2022-09-11T04:41:39.166Z,4
2022-09-11T04:46:42.715Z,8
2022-09-11T04:51:47.262Z,16
2022-09-11T04:56:51.754Z,32
2022-09-11T05:01:55.352Z,44
2022-09-11T05:06:59.862Z,64
2022-09-11T05:12:04.399Z,108
2022-09-11T05:17:08.926Z,112
2022-09-11T05:22:12.515Z,176
2022-09-11T05:27:16.035Z,176
2022-09-11T05:32:20.578Z,244
2022-09-11T05:37:25.101Z,368
2022-09-11T05:42:28.661Z,468
2022-09-11T05:47:33.172Z,524
2022-09-11T05:52:37.731Z,756
2022-09-11T05:57:42.243Z,1116
2022-09-11T06:02:45.796Z,776
2022-09-11T06:07:50.364Z,800
2022-09-11T06:12:54.835Z,656
2022-09-11T06:17:58.381Z,1424
2022-09-11T06:23:06.160Z,2116
2022-09-11T06:28:07.527Z,1600
2022-09-11T06:33:11.032Z,2468
2022-09-11T06:38:15.540Z,2284
2022-09-11T06:43:20.088Z,1144
2022-09-11T06:48:23.643Z,2048
2022-09-11T06:53:28.226Z,3580
2022-09-11T06:58:32.690Z,3272
2022-09-11T07:03:37.228Z,3512
2022-09-11T07:08:40.801Z,2508
2022-09-11T07:13:45.488Z,3300
2022-09-11T07:18:49.827Z,4360
2022-09-11T07:23:53.426Z,5348
2022-09-11T07:28:57.941Z,4376
2022-09-11T07:34:02.446Z,3772
2022-09-11T07:39:06.027Z,3916
2022-09-11T07:44:10.532Z,5136
2022-09-11T07:49:15.066Z,6356
2022-09-11T07:54:18.722Z,6140
2022-09-11T07:59:23.193Z,5996
2022-09-11T08:04:27.718Z,3884
2022-09-11T08:09:32.275Z,3388
2022-09-11T08:14:35.795Z,4848
2022-09-11T08:19:40.351Z,7304
2022-09-11T08:24:44.865Z,5736
2022-09-11T08:29:48.407Z,4376
2022-09-11T08:34:52.914Z,4532
2022-09-11T08:39:57.570Z,4172
2022-09-11T08:45:01.037Z,4404
2022-09-11T08:50:05.550Z,5316
2022-09-11T08:55:10.102Z,5604
2022-09-11T09:00:13.660Z,5600
2022-09-11T09:05:18.158Z,6220
2022-09-11T09:10:22.735Z,8332
2022-09-11T09:15:29.485Z,14060
2022-09-11T09:20:30.762Z,36192
2022-09-11T09:25:35.338Z,27232
2022-09-11T09:30:39.901Z,29952
2022-09-11T09:35:43.425Z,21120
2022-09-11T09:40:46.964Z,12612
2022-09-11T09:45:51.500Z,10180
2022-09-11T09:50:56.031Z,12548
2022-09-11T09:56:00.584Z,15068
2022-09-11T10:01:04.159Z,18528
2022-09-11T10:06:08.649Z,16640
2022-09-11T10:11:13.240Z,19584
2022-09-11T10:16:16.809Z,37504
2022-09-11T10:21:21.291Z,40096
2022-09-11T10:26:25.825Z,22176
2022-09-11T10:31:29.406Z,22272
2022-09-11T10:36:33.907Z,31648
2022-09-11T10:41:38.458Z,17312
2022-09-11T10:46:41.949Z,24736
2022-09-11T10:51:47.643Z,45504
2022-09-11T10:56:51.078Z,48576
2022-09-11T11:01:55.685Z,20128
2022-09-11T11:06:59.139Z,20032
2022-09-11T11:12:03.690Z,21440
2022-09-11T11:17:08.178Z,90432
2022-09-11T11:22:11.786Z,91936
2022-09-11T11:27:16.281Z,90880
2022-09-11T11:32:20.828Z,87872
2022-09-11T11:37:24.354Z,80256
2022-09-11T11:42:28.945Z,80096
2022-09-11T11:47:33.430Z,71008
2022-09-11T11:52:36.994Z,30624
2022-09-11T11:57:41.565Z,91200
2022-09-11T12:02:46.087Z,33024
2022-09-11T12:07:50.625Z,73728
2022-09-11T12:12:54.167Z,22816
2022-09-11T12:17:58.736Z,79456
2022-09-11T12:23:03.240Z,78624
2022-09-11T12:28:06.848Z,80544
2022-09-11T12:33:11.338Z,78560
2022-09-11T12:38:15.902Z,80384
2022-09-11T12:43:19.467Z,26368
2022-09-11T12:48:23.984Z,19424
2022-09-11T12:53:28.492Z,75712
2022-09-11T12:58:32.057Z,20960
2022-09-11T13:03:36.606Z,23328
2022-09-11T13:08:41.209Z,72544
2022-09-11T13:13:45.684Z,64800
2022-09-11T13:18:49.239Z,70944
2022-09-11T13:23:53.790Z,54656
2022-09-11T13:28:58.317Z,20000
2022-09-11T13:34:01.841Z,18464
2022-09-11T13:39:06.408Z,65760
2022-09-11T13:44:10.973Z,24768
2022-09-11T13:49:14.442Z,52800
2022-09-11T13:54:19.004Z,60576
2022-09-11T13:59:22.564Z,18080
2022-09-11T14:04:27.138Z,58176
2022-09-11T14:09:31.610Z,55232
2022-09-11T14:14:35.193Z,51552
2022-09-11T14:19:39.696Z,51072
2022-09-11T14:24:44.256Z,49472
2022-09-11T14:29:47.811Z,17432
2022-09-11T14:34:52.335Z,45696
2022-09-11T14:39:56.933Z,42144
2022-09-11T14:45:00.434Z,40544
2022-09-11T14:50:04.954Z,39936
2022-09-11T14:55:09.489Z,36192
2022-09-11T15:00:14.050Z,14044
2022-09-11T15:05:17.571Z,21792
2022-09-11T15:10:22.108Z,19040
2022-09-11T15:15:26.694Z,18944
2022-09-11T15:20:30.181Z,18464
2022-09-11T15:25:34.764Z,21504
2022-09-11T15:30:39.324Z,26208
2022-09-11T15:35:42.840Z,18304
2022-09-11T15:40:47.376Z,17152
2022-09-11T15:45:52.010Z,16160
2022-09-11T15:50:55.432Z,15296
2022-09-11T15:55:59.999Z,14688
2022-09-11T16:01:04.576Z,14784
2022-09-11T16:06:09.064Z,14144
2022-09-11T16:11:12.625Z,15200
2022-09-11T16:16:17.198Z,13472
2022-09-11T16:21:21.665Z,13184
2022-09-11T16:26:25.273Z,9660
2022-09-11T16:31:29.875Z,7900
2022-09-11T16:36:34.291Z,7416
2022-09-11T16:41:37.886Z,6264
2022-09-11T16:46:42.435Z,5528
2022-09-11T16:51:46.961Z,5044
2022-09-11T16:56:50.485Z,4540
2022-09-11T17:01:55.070Z,3944
2022-09-11T17:06:59.549Z,3448
2022-09-11T17:12:04.046Z,2992
2022-09-11T17:17:07.646Z,2588
2022-09-11T17:22:12.173Z,2184
2022-09-11T17:27:16.727Z,1704
2022-09-11T17:32:28.928Z,1356
2022-09-11T17:37:24.786Z,1064
2022-09-11T17:42:29.310Z,796
2022-09-11T17:47:32.928Z,552
2022-09-11T17:52:37.381Z,344
2022-09-11T17:57:41.902Z,188
2022-09-11T18:02:45.477Z,92
2022-09-11T18:07:50.035Z,40
2022-09-11T18:12:53.576Z,20
2022-09-11T18:17:58.096Z,8
2022-09-11T18:23:02.638Z,0
2022-09-11T18:28:06.211Z,0
2022-09-11T18:33:11.012Z,0
2022-09-11T18:38:15.214Z,0
2022-09-11T18:43:18.764Z,0
2022-09-11T18:48:23.330Z,0
2022-09-11T18:53:27.862Z,0
2022-09-11T18:58:32.375Z,0
2022-09-11T19:03:36.050Z,0
2022-09-11T19:08:40.455Z,0
2022-09-11T19:13:45.177Z,0
2022-09-11T19:18:48.580Z,0
2022-09-11T19:23:53.105Z,0
2022-09-11T19:28:57.622Z,0
2022-09-11T19:34:01.194Z,0
2022-09-11T19:39:05.705Z,0
2022-09-11T19:44:10.221Z,0
2022-09-11T19:49:13.789Z,0
2022-09-11T19:54:18.288Z,0
2022-09-11T19:59:22.856Z,0
2022-09-11T20:04:27.391Z,0
2022-09-11T20:09:32.349Z,0
2022-09-11T20:14:38.389Z,0
2022-09-11T20:19:40.020Z,0
2022-09-11T20:24:43.563Z,0
2022-09-11T20:29:48.073Z,0
2022-09-11T20:34:52.625Z,0
2022-09-11T20:39:56.197Z,0
2022-09-11T20:45:00.753Z,0
2022-09-11T20:50:05.239Z,0
2022-09-11T20:55:08.786Z,0
2022-09-11T21:00:13.323Z,0
2022-09-11T21:05:17.869Z,0
2022-09-11T21:10:22.369Z,0
2022-09-11T21:15:25.911Z,0
2022-09-11T21:20:30.497Z,0
2022-09-11T21:25:34.960Z,0
2022-09-11T21:30:38.537Z,0
2022-09-11T21:35:43.096Z,0
2022-09-11T21:40:47.635Z,0
2022-09-11T21:45:51.162Z,0
2022-09-11T21:50:55.681Z,0
2022-09-11T21:56:00.212Z,0
2022-09-11T22:01:04.864Z,0
2022-09-11T22:06:08.342Z,0
2022-09-11T22:11:12.825Z,0
2022-09-11T22:16:17.415Z,0
2022-09-11T22:21:21.189Z,0
2022-09-11T22:26:24.481Z,0
2022-09-11T22:31:29.069Z,0
2022-09-11T22:36:33.576Z,0
2022-09-11T22:41:37.066Z,0
2022-09-11T22:46:43.102Z,0
2022-09-11T22:51:46.192Z,0
2022-09-11T22:56:50.665Z,0
2022-09-11T23:01:54.245Z,0
2022-09-11T23:06:58.791Z,0
2022-09-11T23:12:03.315Z,0
2022-09-11T23:17:06.868Z,0
2022-09-11T23:22:11.443Z,0
2022-09-11T23:27:15.933Z,0
2022-09-11T23:32:19.484Z,0
2022-09-11T23:37:24.060Z,0
2022-09-11T23:42:28.575Z,0
2022-09-11T23:47:32.106Z,0
2022-09-11T23:52:36.659Z,0
2022-09-11T23:57:41.138Z,0
